Time;durP1;ratioP1;P1;durP2;ratioP2;P2;SDS_P1;SDS_P2;PMS_P1;PMS_P2;Temp;Humidity;BMP_temperature;BMP_pressure;BME280_temperature;BME280_humidity;BME280_pressure;Samples;Min_cycle;Max_cycle;Signal;HPM_P1;HPM_P2
2023/05/28 00:00:23;;;;;;;9.52;3.80;;;;;;;15.76;74.45;102036.31;4971805;28;20642;-71
2023/05/28 00:02:50;;;;;;;9.23;3.75;;;;;;;15.69;73.98;102044.97;4982359;28;20123;-70
2023/05/28 00:05:16;;;;;;;8.55;3.70;;;;;;;15.68;71.22;102043.31;4990483;28;20057;-70
2023/05/28 00:07:43;;;;;;;10.15;3.95;;;;;;;15.66;72.59;102034.69;4979371;28;20045;-70
2023/05/28 00:10:10;;;;;;;9.20;3.90;;;;;;;15.68;71.20;102041.50;4996797;28;20082;-70
2023/05/28 00:12:36;;;;;;;9.27;3.80;;;;;;;15.72;69.93;102029.63;4990639;28;20065;-70
2023/05/28 00:15:03;;;;;;;9.48;3.75;;;;;;;15.77;69.18;102031.84;4984666;28;20643;-70
2023/05/28 00:17:30;;;;;;;11.23;4.50;;;;;;;15.80;69.10;102028.91;4995901;28;20073;-71
2023/05/28 00:19:57;;;;;;;11.98;4.57;;;;;;;15.81;69.41;102027.91;4991271;28;20054;-70
2023/05/28 00:22:24;;;;;;;11.60;4.28;;;;;;;15.81;68.58;102034.03;4994886;28;20064;-70
2023/05/28 00:24:50;;;;;;;12.20;4.88;;;;;;;15.79;69.62;102043.94;4978202;28;20058;-70
2023/05/28 00:27:17;;;;;;;12.38;5.45;;;;;;;15.75;71.41;102045.22;4990239;28;20064;-70
2023/05/28 00:29:43;;;;;;;13.02;4.95;;;;;;;15.67;71.81;102041.66;4959474;28;20133;-70
2023/05/28 00:32:10;;;;;;;12.02;4.78;;;;;;;15.64;72.98;102048.06;4968191;28;20120;-70
2023/05/28 00:34:36;;;;;;;12.20;5.20;;;;;;;15.60;74.57;102054.63;4993542;28;20142;-70
2023/05/28 00:37:03;;;;;;;13.48;5.22;;;;;;;15.57;74.99;102039.91;4985437;28;20058;-71
2023/05/28 00:39:30;;;;;;;14.68;5.50;;;;;;;15.55;75.90;102043.69;5005195;28;20050;-70
2023/05/28 00:42:01;;;;;;;12.05;5.28;;;;;;;15.58;75.87;102044.22;4994324;28;20136;-70
2023/05/28 00:44:31;;;;;;;16.42;5.25;;;;;;;15.55;77.72;102041.03;4987648;28;20132;-70
2023/05/28 00:46:59;;;;;;;16.10;5.45;;;;;;;15.53;76.49;102041.19;5001468;28;20519;-70
2023/05/28 00:49:26;;;;;;;12.40;5.70;;;;;;;15.55;77.06;102035.75;5003754;28;20097;-70
2023/05/28 00:51:54;;;;;;;14.65;5.15;;;;;;;15.50;78.23;102038.81;4971981;28;20050;-70
2023/05/28 00:54:23;;;;;;;12.52;4.97;;;;;;;15.49;76.93;102036.34;4990477;28;20081;-70
2023/05/28 00:56:52;;;;;;;14.20;4.85;;;;;;;15.46;77.51;102037.47;4984700;28;20100;-70
2023/05/28 00:59:20;;;;;;;13.25;5.55;;;;;;;15.45;78.58;102043.75;4987902;28;20058;-70
2023/05/28 01:01:47;;;;;;;11.38;5.40;;;;;;;15.37;79.81;102033.09;4988715;28;20090;-70
2023/05/28 01:04:13;;;;;;;17.60;5.70;;;;;;;15.31;81.10;102044.22;4996647;28;20504;-70
2023/05/28 01:06:41;;;;;;;11.77;5.05;;;;;;;15.29;82.79;102044.38;5002022;28;20065;-70
2023/05/28 01:09:09;;;;;;;14.40;5.20;;;;;;;15.29;82.15;102046.19;4989530;28;20049;-70
2023/05/28 01:11:36;;;;;;;12.75;5.10;;;;;;;15.29;82.27;102043.53;4994545;28;20552;-70
2023/05/28 01:14:03;;;;;;;10.75;5.07;;;;;;;15.23;83.17;102045.00;4982035;28;20117;-70
2023/05/28 01:16:30;;;;;;;13.38;5.35;;;;;;;15.23;83.22;102045.00;4991587;28;20058;-70
2023/05/28 01:18:57;;;;;;;20.40;6.00;;;;;;;15.23;85.45;102051.09;5003197;28;20046;-70
2023/05/28 01:21:27;;;;;;;16.83;5.65;;;;;;;15.17;88.98;102045.53;4986245;28;20153;-70
2023/05/28 01:23:57;;;;;;;12.02;4.78;;;;;;;15.15;90.10;102047.50;4981218;28;20057;-70
2023/05/28 01:26:25;;;;;;;15.70;5.80;;;;;;;15.13;91.04;102041.53;4981116;28;20105;-70
2023/05/28 01:28:51;;;;;;;18.43;5.27;;;;;;;15.15;89.90;102044.88;4996722;28;20551;-70
2023/05/28 01:31:18;;;;;;;15.82;5.47;;;;;;;15.14;92.17;102043.22;4977376;28;20163;-70
2023/05/28 01:33:45;;;;;;;20.52;5.82;;;;;;;15.13;91.15;102034.47;4993246;28;20541;-70
2023/05/28 01:36:17;;;;;;;19.95;6.25;;;;;;;15.11;91.45;102031.13;4992981;28;20507;-70
2023/05/28 01:38:47;;;;;;;15.50;5.90;;;;;;;15.11;92.32;102035.56;4975522;28;20086;-69
2023/05/28 01:41:14;;;;;;;15.95;5.60;;;;;;;15.07;93.09;102029.75;4988257;28;20046;-70
2023/05/28 01:43:42;;;;;;;18.37;5.87;;;;;;;15.02;94.32;102018.78;4985723;28;20565;-69
2023/05/28 01:46:09;;;;;;;20.38;6.43;;;;;;;15.00;94.34;102023.41;4994514;28;20035;-70
2023/05/28 01:48:37;;;;;;;15.48;5.75;;;;;;;14.96;95.59;102017.56;4991960;28;20770;-69
2023/05/28 01:51:04;;;;;;;15.90;5.80;;;;;;;14.91;95.32;102017.16;4988701;28;20103;-69
2023/05/28 01:53:31;;;;;;;17.63;6.28;;;;;;;14.86;96.29;102010.66;4986499;28;20049;-69
2023/05/28 01:55:58;;;;;;;19.20;6.67;;;;;;;14.81;96.91;102013.72;4984754;28;20046;-70
2023/05/28 01:58:25;;;;;;;19.52;6.18;;;;;;;14.76;97.18;102011.53;4999896;28;20353;-70
2023/05/28 02:01:05;;;;;;;14.43;5.90;;;;;;;14.71;99.10;102007.66;4982937;28;20820;-69
2023/05/28 02:03:31;;;;;;;16.38;5.78;;;;;;;14.65;98.22;102002.97;4993079;28;20107;-69
2023/05/28 02:05:58;;;;;;;15.40;5.80;;;;;;;14.63;98.72;102003.91;4993729;28;20207;-70
2023/05/28 02:08:24;;;;;;;15.40;6.15;;;;;;;14.61;97.98;102011.16;4998405;28;20052;-67
2023/05/28 02:10:52;;;;;;;14.48;5.55;;;;;;;14.61;99.68;102007.69;4997435;28;20411;-67
2023/05/28 02:13:18;;;;;;;20.13;6.15;;;;;;;14.54;100.00;102009.19;4989373;28;20112;-66
2023/05/28 02:15:45;;;;;;;21.70;6.47;;;;;;;14.47;100.00;102002.84;4993664;28;20070;-66
2023/05/28 02:18:12;;;;;;;13.63;6.18;;;;;;;14.49;99.35;102014.09;4984191;28;20050;-68
2023/05/28 02:20:38;;;;;;;15.80;6.00;;;;;;;14.45;99.93;102005.63;4984160;28;20137;-66
2023/05/28 02:23:05;;;;;;;15.68;5.93;;;;;;;14.43;100.00;102015.50;4992010;28;20054;-67
2023/05/28 02:25:31;;;;;;;18.35;6.28;;;;;;;14.36;100.00;102004.66;4995535;28;20114;-69
2023/05/28 02:27:58;;;;;;;18.98;6.18;;;;;;;14.34;100.00;102014.53;5004408;28;20050;-67
2023/05/28 02:30:25;;;;;;;16.63;5.50;;;;;;;14.30;99.84;102007.88;4999117;28;20116;-67
2023/05/28 02:32:51;;;;;;;16.27;5.97;;;;;;;14.35;98.22;102012.75;4998541;28;20050;-67
2023/05/28 02:35:19;;;;;;;15.48;5.68;;;;;;;14.31;99.95;102013.97;4996764;28;20054;-70
2023/05/28 02:37:46;;;;;;;16.40;5.20;;;;;;;14.22;100.00;102021.75;5019176;28;20045;-67
2023/05/28 02:40:13;;;;;;;13.32;5.28;;;;;;;14.12;100.00;102022.75;5007911;28;20089;-68
2023/05/28 02:42:39;;;;;;;13.30;5.50;;;;;;;14.02;100.00;102025.41;5002263;28;20053;-66
2023/05/28 02:45:06;;;;;;;11.43;5.88;;;;;;;14.00;100.00;102025.53;4998774;28;20784;-70
2023/05/28 02:47:33;;;;;;;17.35;5.85;;;;;;;13.98;100.00;102022.22;4983847;28;20132;-67
2023/05/28 02:50:00;;;;;;;11.15;5.35;;;;;;;13.95;100.00;102033.03;4974100;28;20502;-67
2023/05/28 02:52:26;;;;;;;20.05;6.07;;;;;;;13.84;100.00;102027.91;4997800;28;20115;-67
2023/05/28 02:54:52;;;;;;;14.07;6.28;;;;;;;13.81;100.00;102021.09;5005270;28;20081;-67
2023/05/28 02:57:19;;;;;;;15.23;5.75;;;;;;;13.78;100.00;102018.75;4995536;28;20104;-66
2023/05/28 02:59:48;;;;;;;19.08;6.15;;;;;;;13.79;100.00;102009.03;4994784;28;20766;-66
2023/05/28 03:02:14;;;;;;;11.07;4.93;;;;;;;13.83;100.00;102003.31;4984310;28;20053;-67
2023/05/28 03:04:41;;;;;;;12.30;5.80;;;;;;;13.85;100.00;102005.81;4989960;28;20474;-66
2023/05/28 03:07:07;;;;;;;12.98;6.05;;;;;;;13.87;99.88;102001.25;5000565;28;20162;-66
2023/05/28 03:09:36;;;;;;;15.63;6.18;;;;;;;13.90;100.00;102011.53;4991575;28;20138;-66
2023/05/28 03:12:03;;;;;;;17.73;6.60;;;;;;;13.90;100.00;102013.31;5005444;28;20146;-67
2023/05/28 03:14:30;;;;;;;15.38;5.88;;;;;;;13.90;99.95;102024.72;4984902;28;20104;-66
2023/05/28 03:16:56;;;;;;;19.25;6.50;;;;;;;13.88;100.00;102016.13;4988257;28;20045;-66
2023/05/28 03:19:23;;;;;;;14.73;5.72;;;;;;;13.86;100.00;102018.06;4992433;28;20081;-67
2023/05/28 03:21:50;;;;;;;17.13;5.78;;;;;;;13.80;100.00;102010.69;4996440;28;20056;-66
2023/05/28 03:24:16;;;;;;;14.18;5.80;;;;;;;13.79;100.00;102019.56;4973927;28;20054;-67
2023/05/28 03:26:44;;;;;;;15.13;5.88;;;;;;;13.70;100.00;102018.59;4999625;28;20220;-66
2023/05/28 03:29:10;;;;;;;18.05;6.50;;;;;;;13.62;100.00;102021.06;4983275;28;20049;-66
2023/05/28 03:31:47;;;;;;;11.10;5.60;;;;;;;13.61;100.00;102027.34;5002737;28;20057;-66
2023/05/28 03:34:14;;;;;;;15.13;6.03;;;;;;;13.50;100.00;102028.28;4979128;28;20154;-66
2023/05/28 03:36:41;;;;;;;14.30;5.25;;;;;;;13.52;100.00;102031.59;4995969;28;20049;-66
2023/05/28 03:39:08;;;;;;;15.60;6.30;;;;;;;13.51;100.00;102026.50;4988896;28;20092;-68
2023/05/28 03:41:38;;;;;;;15.20;5.80;;;;;;;13.42;100.00;102028.13;4992124;28;20054;-68
2023/05/28 03:44:05;;;;;;;12.27;5.45;;;;;;;13.36;100.00;102032.13;4993555;28;20080;-66
2023/05/28 03:46:31;;;;;;;16.80;6.45;;;;;;;13.30;100.00;102030.03;4993726;28;20057;-66
2023/05/28 03:48:58;;;;;;;16.98;6.20;;;;;;;13.34;100.00;102020.88;4989077;28;20052;-68
2023/05/28 03:51:26;;;;;;;18.33;6.15;;;;;;;13.34;100.00;102018.25;4985971;28;20165;-66
2023/05/28 03:53:54;;;;;;;15.88;6.35;;;;;;;13.37;100.00;102025.91;4994795;28;20082;-68
2023/05/28 03:56:20;;;;;;;15.70;6.30;;;;;;;13.45;100.00;102023.41;4986573;28;20057;-67
2023/05/28 03:58:47;;;;;;;19.42;6.28;;;;;;;13.44;100.00;102013.81;4994506;28;20104;-67
2023/05/28 04:01:14;;;;;;;17.83;6.22;;;;;;;13.47;100.00;102010.09;4991518;28;20046;-68
2023/05/28 04:03:40;;;;;;;16.13;7.00;;;;;;;13.51;100.00;102021.22;4989202;28;20073;-66
2023/05/28 04:06:08;;;;;;;15.23;6.60;;;;;;;13.52;100.00;102018.41;4990399;28;20479;-67
2023/05/28 04:08:34;;;;;;;21.05;7.13;;;;;;;13.57;100.00;102013.59;4968997;28;20046;-66
2023/05/28 04:11:01;;;;;;;17.77;6.53;;;;;;;13.59;100.00;102016.91;4988333;28;20459;-66
2023/05/28 04:13:27;;;;;;;17.05;6.28;;;;;;;13.65;100.00;102023.44;4990591;28;20058;-69
2023/05/28 04:15:54;;;;;;;16.40;6.10;;;;;;;13.68;100.00;102019.69;4981894;28;20462;-66
2023/05/28 04:18:21;;;;;;;15.95;6.35;;;;;;;13.70;100.00;102018.59;4988363;28;20054;-68
2023/05/28 04:20:47;;;;;;;16.05;6.70;;;;;;;13.75;100.00;102016.38;4996380;28;20057;-70
2023/05/28 04:23:14;;;;;;;16.80;6.72;;;;;;;13.76;100.00;102023.31;4972975;28;20096;-70
2023/05/28 04:25:41;;;;;;;12.85;5.95;;;;;;;13.81;100.00;102029.00;4999160;28;20046;-67
2023/05/28 04:28:07;;;;;;;19.48;6.70;;;;;;;13.86;100.00;102031.25;4970119;28;20081;-67
2023/05/28 04:30:34;;;;;;;16.20;6.70;;;;;;;13.92;100.00;102027.22;4991235;28;20104;-67
2023/05/28 04:33:00;;;;;;;16.83;7.03;;;;;;;13.93;100.00;102036.78;4998644;28;20054;-67
2023/05/28 04:35:27;;;;;;;15.57;6.82;;;;;;;13.97;100.00;102041.63;4991311;28;20064;-67
2023/05/28 04:37:53;;;;;;;12.13;5.70;;;;;;;14.03;100.00;102045.53;4983190;28;20054;-68
2023/05/28 04:40:21;;;;;;;21.73;7.35;;;;;;;14.03;100.00;102048.16;4995404;28;20053;-67
2023/05/28 04:42:47;;;;;;;15.65;6.63;;;;;;;14.07;100.00;102040.81;4995244;28;20054;-67
2023/05/28 04:45:14;;;;;;;14.50;6.07;;;;;;;14.11;100.00;102040.38;5004540;28;20104;-68
2023/05/28 04:47:41;;;;;;;14.27;6.70;;;;;;;14.13;100.00;102049.03;4992736;28;20054;-69
2023/05/28 04:50:09;;;;;;;16.42;6.78;;;;;;;14.15;100.00;102044.44;4986713;28;20096;-67
2023/05/28 04:52:35;;;;;;;17.52;7.57;;;;;;;14.16;100.00;102054.00;4984858;28;20590;-67
2023/05/28 04:55:05;;;;;;;17.60;6.32;;;;;;;14.19;100.00;102035.25;4982912;28;20069;-67
2023/05/28 04:57:32;;;;;;;15.85;6.55;;;;;;;14.28;100.00;102051.22;4984054;28;20066;-70
2023/05/28 04:59:59;;;;;;;17.50;6.35;;;;;;;14.34;100.00;102061.22;5002260;28;20643;-68
2023/05/28 05:02:25;;;;;;;17.50;6.65;;;;;;;14.38;100.00;102065.22;4991743;28;20458;-68
2023/05/28 05:04:52;;;;;;;11.95;4.82;;;;;;;14.39;100.00;102062.47;4990699;28;20056;-68
2023/05/28 05:07:20;;;;;;;16.52;7.18;;;;;;;14.46;100.00;102067.16;4975319;28;20570;-67
2023/05/28 05:09:47;;;;;;;14.75;6.60;;;;;;;14.51;100.00;102070.22;4976610;28;20338;-67
2023/05/28 05:12:13;;;;;;;16.83;6.15;;;;;;;14.51;100.00;102067.59;4986429;28;20057;-67
2023/05/28 05:14:40;;;;;;;14.23;6.60;;;;;;;14.53;100.00;102069.09;4990926;28;20046;-68
2023/05/28 05:17:08;;;;;;;17.50;6.63;;;;;;;14.56;100.00;102058.31;4996365;28;20112;-67
2023/05/28 05:19:35;;;;;;;14.63;6.03;;;;;;;14.57;100.00;102059.94;4989255;28;20278;-67
2023/05/28 05:22:03;;;;;;;18.15;6.55;;;;;;;14.60;100.00;102056.19;4989264;28;20109;-67
2023/05/28 05:24:31;;;;;;;17.17;6.43;;;;;;;14.67;100.00;102061.75;4988309;28;20076;-67
2023/05/28 05:26:58;;;;;;;21.88;8.13;;;;;;;14.71;100.00;102053.38;4995712;28;20050;-69
2023/05/28 05:29:24;;;;;;;20.15;7.68;;;;;;;14.79;100.00;102068.50;5003600;28;20462;-67
2023/05/28 05:31:51;;;;;;;19.58;7.25;;;;;;;14.86;100.00;102068.75;4982205;28;20046;-67
2023/05/28 05:34:17;;;;;;;17.45;6.72;;;;;;;14.89;100.00;102066.66;4998959;28;20177;-67
2023/05/28 05:36:44;;;;;;;18.98;6.53;;;;;;;14.99;100.00;102064.84;5000020;28;20068;-67
2023/05/28 05:39:10;;;;;;;16.38;6.95;;;;;;;15.10;100.00;102076.19;4990221;28;20613;-68
2023/05/28 05:41:38;;;;;;;20.45;8.05;;;;;;;15.13;100.00;102070.59;4996892;28;20054;-70
2023/05/28 05:44:04;;;;;;;21.63;7.30;;;;;;;15.15;100.00;102072.16;4999325;28;20141;-68
2023/05/28 05:46:31;;;;;;;17.73;6.95;;;;;;;15.20;100.00;102069.88;5003015;28;20054;-67
2023/05/28 05:48:57;;;;;;;22.08;7.43;;;;;;;15.24;100.00;102073.06;4972308;28;20056;-68
2023/05/28 05:51:24;;;;;;;17.65;6.93;;;;;;;15.28;100.00;102074.44;5000090;28;20049;-68
2023/05/28 05:53:50;;;;;;;21.77;8.98;;;;;;;15.33;100.00;102074.84;5007635;28;20066;-68
2023/05/28 05:56:17;;;;;;;17.20;7.15;;;;;;;15.40;100.00;102073.25;5009116;28;20049;-67
2023/05/28 05:58:44;;;;;;;22.05;7.38;;;;;;;15.43;100.00;102067.69;4998675;28;20046;-67
2023/05/28 06:01:10;;;;;;;16.30;6.80;;;;;;;15.52;100.00;102065.13;4989345;28;20050;-68
2023/05/28 06:03:37;;;;;;;20.85;7.97;;;;;;;15.53;100.00;102050.94;4990484;28;20054;-68
2023/05/28 06:06:04;;;;;;;16.65;8.25;;;;;;;15.65;99.81;102062.13;4991193;28;20081;-67
2023/05/28 06:08:30;;;;;;;22.73;8.25;;;;;;;15.68;98.81;102067.09;4995752;28;20154;-68
2023/05/28 06:10:57;;;;;;;19.08;7.47;;;;;;;15.77;97.03;102068.88;5004869;28;20053;-70
2023/05/28 06:13:23;;;;;;;20.88;7.22;;;;;;;15.81;99.03;102064.97;4985048;28;20061;-67
2023/05/28 06:15:50;;;;;;;20.42;7.68;;;;;;;15.88;98.05;102066.03;4985084;28;20046;-68
2023/05/28 06:18:17;;;;;;;16.65;6.93;;;;;;;15.94;96.52;102067.25;4991479;28;20050;-68
2023/05/28 06:20:43;;;;;;;17.30;7.00;;;;;;;15.99;95.58;102064.97;4994048;28;20138;-68
2023/05/28 06:23:10;;;;;;;14.40;6.80;;;;;;;16.04;96.00;102056.59;4996492;28;20419;-68
2023/05/28 06:25:37;;;;;;;17.05;7.10;;;;;;;16.14;95.18;102067.91;4996532;28;20054;-68
2023/05/28 06:28:03;;;;;;;18.40;6.47;;;;;;;16.20;94.93;102068.13;5001065;28;20110;-69
2023/05/28 06:30:30;;;;;;;15.55;6.97;;;;;;;16.29;94.63;102065.53;4980211;28;20054;-67
2023/05/28 06:32:56;;;;;;;16.02;7.35;;;;;;;16.33;93.67;102073.03;5005115;28;20045;-70
2023/05/28 06:35:23;;;;;;;18.67;7.38;;;;;;;16.38;93.36;102067.25;4997791;28;20057;-69
2023/05/28 06:37:50;;;;;;;17.05;7.10;;;;;;;16.45;92.68;102063.03;4987261;28;20109;-67
2023/05/28 06:40:16;;;;;;;16.60;7.63;;;;;;;16.49;91.67;102071.50;4992874;28;20115;-69
2023/05/28 06:42:43;;;;;;;16.65;7.03;;;;;;;16.54;90.89;102069.19;4986531;28;20714;-69
2023/05/28 06:45:10;;;;;;;18.95;8.15;;;;;;;16.57;90.56;102074.19;4999008;28;20046;-68
2023/05/28 06:47:37;;;;;;;14.40;7.17;;;;;;;16.60;88.71;102063.28;4984398;28;20107;-68
2023/05/28 06:50:04;;;;;;;18.60;7.32;;;;;;;16.63;89.76;102068.28;4994116;28;20133;-68
2023/05/28 06:52:32;;;;;;;16.55;7.07;;;;;;;16.65;89.50;102074.25;4982230;28;20132;-68
2023/05/28 06:54:58;;;;;;;18.20;7.50;;;;;;;16.67;89.89;102080.22;4999920;28;20046;-68
2023/05/28 06:57:25;;;;;;;12.35;6.13;;;;;;;16.67;89.89;102074.09;4993320;28;20050;-67
2023/05/28 06:59:51;;;;;;;14.93;6.65;;;;;;;16.68;89.31;102070.44;4988716;28;20092;-68
2023/05/28 07:02:18;;;;;;;18.23;7.55;;;;;;;16.65;90.52;102068.94;4985721;28;20200;-68
2023/05/28 07:04:44;;;;;;;14.18;6.28;;;;;;;16.69;90.28;102064.16;4997045;28;20132;-67
2023/05/28 07:07:11;;;;;;;14.57;6.20;;;;;;;16.71;89.61;102068.31;5000379;28;20050;-69
2023/05/28 07:09:38;;;;;;;15.35;6.57;;;;;;;16.77;90.90;102080.09;4972403;28;20085;-68
2023/05/28 07:12:05;;;;;;;15.32;7.22;;;;;;;16.79;91.29;102076.31;4980193;28;20128;-68
2023/05/28 07:14:32;;;;;;;17.02;7.20;;;;;;;16.78;91.14;102074.66;4991652;28;20101;-68
2023/05/28 07:16:58;;;;;;;13.57;6.65;;;;;;;16.89;90.87;102083.34;4989032;28;20056;-67
2023/05/28 07:19:25;;;;;;;19.08;7.78;;;;;;;16.93;92.41;102088.16;5000435;28;20073;-68
2023/05/28 07:21:52;;;;;;;16.80;6.63;;;;;;;17.00;93.16;102091.03;4984956;28;20045;-68
2023/05/28 07:24:18;;;;;;;15.77;5.93;;;;;;;17.07;94.21;102089.44;4988706;28;20526;-68
2023/05/28 07:26:45;;;;;;;16.88;6.05;;;;;;;17.15;90.88;102089.47;4989710;28;20502;-68
2023/05/28 07:29:18;;;;;;;14.77;5.30;;;;;;;17.28;88.42;102089.00;4993818;28;20050;-68
2023/05/28 07:31:44;;;;;;;15.50;6.25;;;;;;;17.37;86.43;102096.00;4990299;28;20050;-67
2023/05/28 07:34:11;;;;;;;12.88;5.57;;;;;;;17.43;84.88;102091.88;4991061;28;20487;-68
2023/05/28 07:36:38;;;;;;;14.13;6.25;;;;;;;17.55;84.61;102093.25;4994439;28;20049;-68
2023/05/28 07:39:05;;;;;;;16.88;6.00;;;;;;;17.62;86.17;102092.59;4978442;28;20550;-67
2023/05/28 07:41:31;;;;;;;14.15;6.00;;;;;;;17.71;85.60;102088.97;4997823;28;20101;-68
2023/05/28 07:43:58;;;;;;;15.63;5.50;;;;;;;17.81;83.90;102089.66;4985900;28;20097;-69
2023/05/28 07:46:25;;;;;;;15.07;6.03;;;;;;;17.85;82.49;102091.00;4992992;28;20056;-68
2023/05/28 07:48:51;;;;;;;12.45;4.88;;;;;;;17.89;82.48;102088.88;4991295;28;20053;-68
2023/05/28 07:51:18;;;;;;;12.75;5.20;;;;;;;17.95;84.08;102090.88;4985980;28;20619;-68
2023/05/28 07:53:45;;;;;;;9.68;4.18;;;;;;;18.10;78.66;102086.56;4996572;28;20466;-69
2023/05/28 07:56:12;;;;;;;11.90;5.22;;;;;;;18.16;77.38;102091.22;4989482;28;20352;-68
2023/05/28 07:58:45;;;;;;;12.87;5.10;;;;;;;18.28;78.88;102094.38;4971997;28;20450;-68
2023/05/28 08:01:12;;;;;;;11.90;4.53;;;;;;;18.41;77.94;102095.72;4987031;28;20050;-68
2023/05/28 08:03:38;;;;;;;10.55;4.18;;;;;;;18.52;73.60;102092.69;4999162;28;20052;-69
2023/05/28 08:06:06;;;;;;;12.75;4.72;;;;;;;18.64;73.64;102098.47;4975369;28;20049;-68
2023/05/28 08:08:32;;;;;;;11.15;4.75;;;;;;;18.67;70.15;102106.97;4989599;28;20058;-69
2023/05/28 08:10:59;;;;;;;64.43;10.40;;;;;;;18.80;72.70;102097.66;5005578;28;20088;-69
2023/05/28 08:13:26;;;;;;;13.02;4.32;;;;;;;18.92;70.69;102091.00;4990166;28;20050;-68
2023/05/28 08:15:52;;;;;;;13.48;4.13;;;;;;;19.07;71.50;102091.09;4993062;28;20057;-69
2023/05/28 08:18:19;;;;;;;13.50;4.38;;;;;;;19.15;70.01;102085.75;4983000;28;20124;-68
2023/05/28 08:20:47;;;;;;;9.75;4.03;;;;;;;19.25;69.27;102085.53;4994520;28;20530;-68
2023/05/28 08:23:14;;;;;;;11.52;4.70;;;;;;;19.33;67.26;102082.88;4996751;28;20054;-68
2023/05/28 08:25:41;;;;;;;10.88;4.05;;;;;;;19.41;68.14;102076.69;4997069;28;20650;-68
2023/05/28 08:28:09;;;;;;;11.50;3.92;;;;;;;19.70;67.72;102084.00;4993200;28;20094;-68
2023/05/28 08:30:36;;;;;;;14.05;4.72;;;;;;;19.97;67.28;102087.97;4987678;28;20133;-68
2023/05/28 08:33:03;;;;;;;12.52;4.70;;;;;;;20.32;65.07;102080.38;4987655;28;20080;-68
2023/05/28 08:35:29;;;;;;;8.80;3.40;;;;;;;20.63;64.13;102077.59;4992672;28;20140;-68
2023/05/28 08:37:56;;;;;;;10.00;4.32;;;;;;;20.99;62.44;102076.03;4992380;28;20054;-69
2023/05/28 08:40:23;;;;;;;8.68;3.95;;;;;;;21.36;60.55;102068.91;5001462;28;21592;-69
2023/05/28 08:42:49;;;;;;;10.85;4.25;;;;;;;21.77;58.94;102068.34;4992835;28;20100;-68
2023/05/28 08:45:16;;;;;;;8.20;3.88;;;;;;;22.17;57.53;102071.38;5000996;28;20057;-68
2023/05/28 08:47:43;;;;;;;12.63;4.28;;;;;;;22.56;56.43;102070.91;4992297;28;20054;-71
2023/05/28 08:50:13;;;;;;;10.18;3.70;;;;;;;22.85;53.96;102069.81;4985086;28;20046;-68
2023/05/28 08:52:41;;;;;;;9.68;4.35;;;;;;;23.09;50.68;102067.69;4992238;28;20109;-69
2023/05/28 08:55:08;;;;;;;;;;;;;;;23.20;51.02;102067.13;4999131;28;20133;-69
2023/05/28 08:57:34;;;;;;;11.45;4.15;;;;;;;23.39;52.35;102067.41;4980853;28;20000;-69
2023/05/28 09:00:07;;;;;;;10.98;4.30;;;;;;;23.58;52.30;102066.63;5003599;28;20057;-69
2023/05/28 09:02:34;;;;;;;17.00;5.50;;;;;;;23.72;50.97;102066.63;4994896;28;20049;-70
2023/05/28 09:05:01;;;;;;;14.07;4.38;;;;;;;23.90;52.36;102066.91;4998618;28;20054;-70
2023/05/28 09:07:27;;;;;;;9.60;3.88;;;;;;;24.13;50.58;102066.50;4989623;28;20062;-71
2023/05/28 09:09:56;;;;;;;13.25;3.80;;;;;;;24.29;49.87;102062.59;4992828;28;20054;-71
2023/05/28 09:12:24;;;;;;;12.15;3.65;;;;;;;24.59;48.88;102057.59;4998974;28;20473;-70
2023/05/28 09:14:53;;;;;;;7.43;3.28;;;;;;;24.86;49.72;102046.78;4993450;28;20050;-70
2023/05/28 09:17:39;;;;;;;10.63;4.30;;;;;;;25.01;48.59;102052.72;5001494;28;20061;-70
2023/05/28 09:20:10;;;;;;;10.10;3.90;;;;;;;25.29;49.22;102058.84;4990970;28;20049;-71
2023/05/28 09:22:37;;;;;;;12.43;4.25;;;;;;;25.45;48.70;102047.56;4994364;28;20053;-70
2023/05/28 09:25:06;;;;;;;12.90;4.20;;;;;;;25.55;49.14;102050.59;4991339;28;20503;-70
2023/05/28 09:27:33;;;;;;;12.23;4.15;;;;;;;25.75;49.36;102052.31;4982276;28;20081;-70
2023/05/28 09:30:07;;;;;;;12.73;4.43;;;;;;;25.99;49.09;102056.09;4994486;28;20092;-70
2023/05/28 09:32:34;;;;;;;10.88;4.20;;;;;;;26.00;46.54;102047.00;4985497;28;20101;-71
2023/05/28 09:35:05;;;;;;;12.88;4.55;;;;;;;26.09;47.07;102056.44;4999487;28;20050;-70
2023/05/28 09:37:31;;;;;;;10.88;4.25;;;;;;;26.14;46.58;102051.22;4984884;28;20050;-72
2023/05/28 09:40:09;;;;;;;11.63;4.53;;;;;;;26.25;47.60;102055.06;4992918;28;20072;-68
2023/05/28 09:42:41;;;;;;;10.65;5.03;;;;;;;26.24;45.02;102039.94;5001666;28;20099;-69
2023/05/28 09:45:09;;;;;;;11.40;4.28;;;;;;;26.30;45.00;102049.00;4986246;28;20060;-69
2023/05/28 09:47:43;;;;;;;13.00;4.30;;;;;;;26.44;44.18;102045.97;5000758;28;20085;-70
2023/05/28 09:50:11;;;;;;;12.27;3.90;;;;;;;26.56;45.44;102042.50;4982378;28;20045;-69
2023/05/28 09:52:39;;;;;;;7.75;3.83;;;;;;;26.63;46.43;102043.31;4967629;28;20046;-70
2023/05/28 09:55:07;;;;;;;13.15;5.13;;;;;;;26.62;44.13;102034.41;4966858;28;20050;-68
2023/05/28 09:57:35;;;;;;;10.38;4.07;;;;;;;26.71;44.66;102044.88;4979432;28;20164;-70
2023/05/28 10:00:13;;;;;;;11.25;4.60;;;;;;;26.76;45.50;102045.03;4996733;28;20060;-70
2023/05/28 10:02:52;;;;;;;11.90;4.25;;;;;;;26.70;45.98;102040.53;4992608;28;20490;-68
2023/05/28 10:05:20;;;;;;;10.93;4.10;;;;;;;26.71;45.31;102036.81;4992196;28;20054;-71
2023/05/28 10:07:52;;;;;;;13.05;5.85;;;;;;;26.83;45.48;102027.75;4997886;28;20137;-70
2023/05/28 10:10:20;;;;;;;12.52;5.25;;;;;;;26.98;45.99;102037.31;4987970;28;20090;-71
2023/05/28 10:12:49;;;;;;;13.68;4.45;;;;;;;27.15;45.90;102038.31;4988392;28;20724;-70
2023/05/28 10:15:16;;;;;;;10.60;4.18;;;;;;;27.15;44.32;102043.72;4988198;28;20062;-70
2023/05/28 10:17:43;;;;;;;10.35;4.53;;;;;;;27.14;45.03;102042.03;4981232;28;20057;-70
2023/05/28 10:20:11;;;;;;;16.63;4.63;;;;;;;27.13;44.63;102044.97;4980072;28;20060;-69
2023/05/28 10:22:39;;;;;;;14.25;4.80;;;;;;;26.99;43.97;102038.94;4985051;28;20140;-69
2023/05/28 10:25:08;;;;;;;14.25;5.53;;;;;;;26.79;45.42;102048.06;4992647;28;20077;-69
2023/05/28 10:27:37;;;;;;;15.20;6.13;;;;;;;26.71;45.62;102047.56;4994436;28;20051;-71
2023/05/28 10:30:04;;;;;;;13.15;5.38;;;;;;;26.66;46.00;102045.56;4988293;28;20058;-69
2023/05/28 10:32:43;;;;;;;12.48;5.00;;;;;;;26.83;45.74;102046.59;4993473;28;20149;-70
2023/05/28 10:35:11;;;;;;;10.98;5.20;;;;;;;26.81;45.52;102054.09;4986766;28;20050;-70
2023/05/28 10:37:39;;;;;;;;;;;;;;;26.78;45.69;102051.00;4990019;28;20268;-69
2023/05/28 10:40:09;;;;;;;13.60;5.20;;;;;;;26.73;45.78;102050.84;4988760;28;20337;-69
2023/05/28 10:42:42;;;;;;;16.70;5.25;;;;;;;26.87;46.91;102049.63;4980924;28;20045;-69
2023/05/28 10:45:10;;;;;;;11.23;5.55;;;;;;;26.95;46.03;102035.91;4992829;28;20735;-69
2023/05/28 10:47:38;;;;;;;;;;;;;;;27.12;46.11;102038.75;4988851;28;20058;-69
2023/05/28 10:50:08;;;;;;;11.82;5.00;;;;;;;27.29;45.12;102048.94;4989236;28;19977;-68
2023/05/28 10:53:02;;;;;;;;;;;;;;;27.28;44.56;102044.59;4983725;28;20058;-68
2023/05/28 10:55:28;;;;;;;10.07;4.88;;;;;;;27.32;45.26;102051.16;4998925;28;19937;-69
2023/05/28 10:58:07;;;;;;;13.90;5.00;;;;;;;27.45;44.29;102044.78;4989679;28;20054;-69
2023/05/28 11:00:40;;;;;;;12.50;4.70;;;;;;;27.43;44.81;102047.69;4993100;28;20499;-69
2023/05/28 11:03:06;;;;;;;10.95;4.80;;;;;;;27.61;44.14;102044.91;4992450;28;20471;-69
2023/05/28 11:05:35;;;;;;;12.30;4.67;;;;;;;27.81;42.94;102046.47;4992287;28;20054;-70
2023/05/28 11:08:03;;;;;;;11.07;4.22;;;;;;;27.86;43.52;102043.91;4993073;28;20065;-71
2023/05/28 11:10:29;;;;;;;10.43;3.85;;;;;;;27.76;42.69;102049.06;4974176;28;20116;-69
2023/05/28 11:12:58;;;;;;;10.10;4.40;;;;;;;27.79;42.26;102048.59;4988842;28;20675;-71
2023/05/28 11:15:25;;;;;;;14.55;5.30;;;;;;;27.57;42.25;102051.81;4975307;28;20050;-69
2023/05/28 11:17:51;;;;;;;13.85;5.00;;;;;;;27.65;42.91;102041.78;4985549;28;20050;-70